createdAt,value
2022-12-06T03:26:10.114Z,101152.33
2022-12-06T03:27:15.827Z,101161.94
2022-12-06T03:28:20.959Z,101162.97
2022-12-06T03:29:25.679Z,101154.68
2022-12-06T03:30:31.335Z,101159.52
2022-12-06T03:33:58.976Z,101151.70
2022-12-06T03:35:05.078Z,101152.80
2022-12-06T03:36:11.046Z,101168.20
2022-12-06T03:37:16.561Z,101152.33
2022-12-06T03:38:25.064Z,101153.29
2022-12-06T03:39:47.531Z,101156.98
2022-12-06T03:40:52.265Z,101159.84
2022-12-06T03:41:57.267Z,101152.81
2022-12-06T03:42:59.886Z,101151.92
2022-12-06T03:44:01.976Z,101158.66
2022-12-06T03:45:05.448Z,101153.12
2022-12-06T03:46:18.371Z,101153.12
2022-12-06T03:47:26.850Z,101153.25
2022-12-06T03:48:38.510Z,101158.31
2022-12-06T03:49:52.814Z,101149.09
2022-12-06T03:50:58.972Z,101145.53
2022-12-06T03:52:02.074Z,101143.92
2022-12-06T03:53:04.505Z,101148.98
2022-12-06T03:54:08.205Z,101140.72
2022-12-06T03:55:10.356Z,101146.45
2022-12-06T03:56:12.244Z,101148.06
2022-12-06T03:57:14.076Z,101139.69
2022-12-06T03:58:15.803Z,101142.84
2022-12-06T03:59:17.507Z,101145.37
2022-12-06T04:00:20.156Z,101141.09
2022-12-06T04:01:22.209Z,101137.78
2022-12-06T04:02:25.189Z,101142.70
2022-12-06T04:03:27.139Z,101141.67
2022-12-06T04:04:28.951Z,101139.05
2022-12-06T04:05:31.453Z,101134.30
2022-12-06T04:06:33.586Z,101140.00
2022-12-06T04:07:35.778Z,101139.22
2022-12-06T04:08:38.106Z,101141.50
2022-12-06T04:09:39.942Z,101135.77
2022-12-06T04:10:41.746Z,101139.38
2022-12-06T04:11:43.698Z,101135.42
2022-12-06T04:12:45.632Z,101135.42
2022-12-06T04:13:47.652Z,101137.17
2022-12-06T04:14:49.698Z,101131.56
2022-12-06T04:15:57.770Z,101128.22
2022-12-06T04:16:59.964Z,101119.47
2022-12-06T04:18:03.881Z,101129.24
2022-12-06T04:19:05.895Z,101130.92
2022-12-06T04:20:08.350Z,101130.12
2022-12-06T04:21:10.289Z,101123.56
2022-12-06T04:22:11.994Z,101116.13
2022-12-06T04:23:13.816Z,101126.09
2022-12-06T04:24:15.552Z,101122.14
2022-12-06T04:25:17.269Z,101119.72
2022-12-06T04:26:21.773Z,101124.19
2022-12-06T04:27:23.520Z,101130.75
2022-12-06T04:28:25.636Z,101123.81
2022-12-06T04:29:27.300Z,101122.79
2022-12-06T04:30:30.283Z,101124.84
2022-12-06T04:31:32.470Z,101119.00
2022-12-06T04:32:34.509Z,101119.95
2022-12-06T04:33:36.498Z,101124.05
2022-12-06T04:34:38.117Z,101117.25
2022-12-06T04:35:39.737Z,101115.69
2022-12-06T04:36:41.947Z,101103.28
2022-12-06T04:37:43.813Z,101113.59
2022-12-06T04:38:46.077Z,101111.88
2022-12-06T04:39:47.778Z,101105.57
2022-12-06T04:40:49.694Z,101110.76
2022-12-06T04:41:52.200Z,101106.59
2022-12-06T04:42:53.893Z,101102.39
2022-12-06T04:43:55.952Z,101105.47
2022-12-06T04:44:57.902Z,101115.99
2022-12-06T04:45:59.535Z,101106.84
2022-12-06T04:47:01.678Z,101102.73
2022-12-06T04:48:04.647Z,101098.47
2022-12-06T04:49:07.032Z,101110.32
2022-12-06T04:50:09.762Z,101109.30
2022-12-06T04:51:11.963Z,101109.30
2022-12-06T04:52:14.552Z,101100.34
2022-12-06T04:53:16.435Z,101101.92
2022-12-06T04:54:18.176Z,101103.66
2022-12-06T04:55:19.897Z,101100.21
2022-12-06T04:56:22.069Z,101109.67
2022-12-06T04:57:23.873Z,101105.64
2022-12-06T04:58:25.526Z,101105.94
2022-12-06T04:59:27.943Z,101105.70
2022-12-06T05:00:29.949Z,101109.48
2022-12-06T05:01:31.744Z,101104.13
2022-12-06T05:02:33.682Z,101113.77
2022-12-06T05:03:40.873Z,101102.94
2022-12-06T05:04:41.119Z,101101.92
2022-12-06T05:05:44.030Z,101120.56
2022-12-06T05:06:46.436Z,101119.00
2022-12-06T05:07:48.247Z,101117.33
2022-12-06T05:08:50.382Z,101109.91
2022-12-06T05:09:52.592Z,101098.13
2022-12-06T05:10:54.632Z,101106.42
2022-12-06T05:11:56.700Z,101116.70
2022-12-06T05:13:00.699Z,101107.61
2022-12-06T05:14:03.768Z,101106.01
2022-12-06T05:15:06.808Z,101101.91
2022-12-06T05:16:10.029Z,101107.75
2022-12-06T05:17:13.199Z,101112.50
2022-12-06T05:18:15.202Z,101098.05
2022-12-06T05:19:17.793Z,101100.52
2022-12-06T05:20:20.297Z,101102.56
2022-12-06T05:21:24.293Z,101105.27
2022-12-06T05:22:26.316Z,101095.77
2022-12-06T05:23:28.687Z,101095.70
2022-12-06T05:24:31.864Z,101107.69
2022-12-06T05:25:34.010Z,101090.23
2022-12-06T05:26:35.999Z,101106.84
2022-12-06T05:27:37.917Z,101106.67
2022-12-06T05:28:40.534Z,101102.64
2022-12-06T05:29:42.450Z,101104.00
2022-12-06T05:30:45.003Z,101102.91
2022-12-06T05:31:46.978Z,101100.77
2022-12-06T05:32:53.887Z,101101.62
2022-12-06T05:33:54.124Z,101096.86
2022-12-06T05:34:56.736Z,101099.56
2022-12-06T05:36:00.697Z,101092.28
2022-12-06T05:37:02.835Z,101090.28
2022-12-06T05:38:05.231Z,101088.70
2022-12-06T05:39:07.073Z,101086.31
2022-12-06T05:40:10.736Z,101097.67
2022-12-06T05:41:12.619Z,101094.13
2022-12-06T05:42:22.100Z,101076.16
2022-12-06T05:43:19.027Z,101076.16
2022-12-06T05:44:21.129Z,101096.75
2022-12-06T05:45:23.049Z,101096.98
2022-12-06T05:46:25.319Z,101091.64
2022-12-06T05:47:27.282Z,101085.63
2022-12-06T05:48:29.447Z,101094.69
2022-12-06T05:49:31.342Z,101090.76
2022-12-06T05:50:34.306Z,101090.76
2022-12-06T05:51:36.430Z,101087.03
2022-12-06T05:52:38.331Z,101090.76
2022-12-06T05:53:40.180Z,101085.00
2022-12-06T05:54:42.147Z,101095.47
2022-12-06T05:55:44.315Z,101089.11
2022-12-06T05:56:48.689Z,101088.10
2022-12-06T05:57:51.353Z,101088.89
2022-12-06T05:58:53.489Z,101097.15
2022-12-06T05:59:56.295Z,101095.47
2022-12-06T06:00:58.525Z,101092.38
2022-12-06T06:02:00.630Z,101094.08
2022-12-06T06:03:03.772Z,101089.91
2022-12-06T06:04:05.983Z,101090.48
2022-12-06T06:05:08.801Z,101086.48
2022-12-06T06:06:10.910Z,101085.70
2022-12-06T06:07:12.957Z,101084.84
2022-12-06T06:08:18.511Z,101087.03
2022-12-06T06:09:20.483Z,101087.03
2022-12-06T06:10:24.011Z,101083.95
2022-12-06T10:41:19.461Z,100851.68
2022-12-06T10:42:30.838Z,100852.38
2022-12-06T10:43:45.602Z,100844.64
2022-12-06T10:44:52.555Z,100849.02
2022-12-06T10:46:05.761Z,100856.59
2022-12-06T10:47:12.074Z,100847.37
2022-12-06T10:48:30.261Z,100845.52
2022-12-06T10:49:44.910Z,100848.03
2022-12-06T10:50:50.973Z,100854.43
2022-12-06T10:52:03.194Z,100839.41
2022-12-06T10:53:14.926Z,100843.59
2022-12-06T10:54:24.183Z,100835.36
2022-12-06T10:55:30.578Z,100836.99
2022-12-06T10:56:36.603Z,100834.06
2022-12-06T10:57:57.647Z,100832.68
2022-12-06T11:00:25.649Z,100825.44
2022-12-06T11:01:34.827Z,100827.95
2022-12-06T11:02:44.879Z,100827.23
2022-12-06T11:04:05.664Z,100836.05
2022-12-06T11:05:20.625Z,100833.82
2022-12-06T11:06:31.908Z,100821.30
2022-12-06T11:07:37.805Z,100829.00
2022-12-06T11:08:54.529Z,100820.48
2022-12-06T11:09:58.167Z,100813.50
2022-12-06T11:11:04.103Z,100815.58
2022-12-06T11:12:33.389Z,100814.95
2022-12-06T11:13:42.619Z,100813.63
2022-12-06T11:14:48.194Z,100815.09
2022-12-06T11:15:54.494Z,100808.56
2022-12-06T11:17:15.594Z,100812.53
2022-12-06T11:18:17.915Z,100813.88
2022-12-06T11:19:41.387Z,100807.41
2022-12-06T11:21:01.933Z,100803.82
2022-12-06T11:22:13.730Z,100805.39
2022-12-06T11:23:46.780Z,100796.52
2022-12-06T11:24:58.275Z,100790.48
2022-12-06T11:26:19.574Z,100794.95
2022-12-06T11:27:25.740Z,100792.78
2022-12-06T11:28:40.217Z,100784.38
2022-12-06T11:29:44.630Z,100785.33
2022-12-06T11:30:49.631Z,100778.59
2022-12-06T11:31:58.369Z,100779.35
2022-12-06T11:33:02.826Z,100782.05
2022-12-06T11:34:07.970Z,100776.62
2022-12-06T11:35:18.185Z,100775.33
2022-12-06T11:36:22.259Z,100774.95
2022-12-06T11:37:28.272Z,100773.19
2022-12-06T11:38:32.819Z,100766.52
2022-12-06T11:39:35.389Z,100772.44
2022-12-06T11:40:43.763Z,100771.46
2022-12-06T11:41:49.349Z,100756.34
2022-12-06T11:42:52.474Z,100753.09
2022-12-06T11:43:57.420Z,100758.60
2022-12-06T11:45:12.194Z,100755.30
2022-12-06T11:46:15.095Z,100755.64
2022-12-06T11:47:21.526Z,100754.06
2022-12-06T11:48:26.921Z,100751.33
2022-12-06T11:49:38.565Z,100758.36
2022-12-06T11:50:42.564Z,100756.91
2022-12-06T11:51:44.727Z,100753.18
2022-12-06T11:53:05.588Z,100761.85
2022-12-06T11:54:20.501Z,100751.16
2022-12-06T11:56:39.378Z,100757.25
2022-12-06T11:57:50.857Z,100749.66
2022-12-06T11:59:04.909Z,100747.36
2022-12-06T12:00:22.667Z,100746.88
2022-12-06T12:01:43.632Z,100741.50
2022-12-06T12:02:47.727Z,100748.27
2022-12-06T12:03:49.956Z,100737.34
2022-12-06T12:04:53.039Z,100736.34
2022-12-06T12:06:22.002Z,100726.06
2022-12-06T12:07:26.054Z,100735.55
2022-12-06T12:08:32.429Z,100729.67
2022-12-06T12:09:47.205Z,100728.96
2022-12-06T12:11:00.983Z,100726.55
2022-12-06T12:12:06.893Z,100712.45
2022-12-06T12:13:18.535Z,100724.59
2022-12-06T12:14:30.370Z,100717.59
2022-12-06T12:15:33.892Z,100713.43
2022-12-06T12:16:38.933Z,100715.02
2022-12-06T12:17:45.075Z,100712.05
2022-12-06T12:19:03.443Z,100710.58
2022-12-06T12:20:09.457Z,100700.92
2022-12-06T12:21:12.122Z,100709.21
2022-12-06T12:22:18.729Z,100701.37
2022-12-06T12:23:24.331Z,100703.76
2022-12-06T12:25:17.448Z,100703.56
2022-12-06T12:26:06.102Z,100698.69
2022-12-06T12:27:31.503Z,100697.18
2022-12-06T12:28:34.431Z,100696.27
2022-12-06T12:29:36.488Z,100698.33
2022-12-06T12:30:39.946Z,100701.34
2022-12-06T12:31:54.367Z,100695.91
2022-12-06T12:33:09.114Z,100700.70
2022-12-06T12:34:20.824Z,100697.53
2022-12-06T12:35:25.131Z,100701.10
2022-12-06T12:36:29.580Z,100685.04
2022-12-06T12:37:31.940Z,100690.33
2022-12-06T12:38:55.651Z,100704.03
2022-12-06T12:39:58.050Z,100695.84
2022-12-06T12:41:06.616Z,100694.87
2022-12-06T12:42:29.538Z,100698.93
2022-12-06T12:43:33.176Z,100691.26
2022-12-06T12:44:40.012Z,100697.87
2022-12-06T12:46:12.074Z,100704.05
2022-12-06T12:47:18.247Z,100693.12
2022-12-06T12:48:26.673Z,100696.49
2022-12-06T12:49:37.594Z,100697.34
2022-12-06T12:50:43.213Z,100701.64
2022-12-06T12:51:48.066Z,100698.35
2022-12-06T12:52:51.650Z,100700.20
2022-12-06T12:54:03.028Z,100697.68
2022-12-06T12:55:20.299Z,100701.03
2022-12-06T12:56:22.528Z,100700.46
2022-12-06T12:57:24.546Z,100705.92
2022-12-06T12:58:27.272Z,100703.10
2022-12-06T12:59:39.246Z,100705.65
2022-12-06T13:00:44.999Z,100704.69
2022-12-06T13:01:59.863Z,100707.21
2022-12-06T13:03:14.185Z,100703.19
2022-12-06T13:04:33.104Z,100707.41
2022-12-06T13:05:44.893Z,100701.45
2022-12-06T13:07:01.037Z,100700.10
2022-12-06T13:08:21.713Z,100694.08
2022-12-06T13:09:30.215Z,100685.23
2022-12-06T13:10:36.567Z,100694.77
2022-12-06T13:11:42.268Z,100689.66
2022-12-06T13:12:55.861Z,100694.50
2022-12-06T13:14:00.135Z,100692.49
2022-12-06T13:15:22.333Z,100694.27
2022-12-06T13:16:30.877Z,100694.00
2022-12-06T13:17:36.684Z,100689.81
2022-12-06T13:18:42.353Z,100694.11
2022-12-06T13:19:53.045Z,100691.61
2022-12-06T13:20:54.430Z,100692.63
2022-12-06T13:21:57.649Z,100698.30
2022-12-06T13:23:09.448Z,100694.59
2022-12-06T13:24:26.924Z,100689.20
2022-12-06T13:25:30.611Z,100693.33
2022-12-06T13:26:38.250Z,100701.58
2022-12-06T13:27:44.722Z,100700.55
2022-12-06T13:28:50.497Z,100700.40
2022-12-06T13:29:59.538Z,100696.81
2022-12-06T13:31:05.989Z,100689.81
2022-12-06T13:32:14.770Z,100690.25
2022-12-06T13:33:21.454Z,100695.20
2022-12-06T13:34:38.021Z,100692.50
2022-12-06T13:35:46.524Z,100691.91
2022-12-06T13:36:48.742Z,100686.17
2022-12-06T13:38:22.659Z,100693.36
2022-12-06T13:39:28.121Z,100693.73
2022-12-06T13:40:36.642Z,100694.87
2022-12-06T13:41:42.779Z,100692.88
2022-12-06T13:42:45.831Z,100700.34
2022-12-06T13:43:49.193Z,100690.04
2022-12-06T13:44:54.696Z,100701.09
2022-12-06T13:46:15.390Z,100690.14
2022-12-06T13:47:30.847Z,100682.88
2022-12-06T13:48:53.879Z,100691.91
2022-12-06T13:49:59.489Z,100684.64
2022-12-06T13:51:04.919Z,100686.73
2022-12-06T13:52:06.953Z,100684.27
2022-12-06T13:53:09.049Z,100679.95
2022-12-06T13:54:20.565Z,100679.95
2022-12-06T13:55:29.573Z,100676.57
2022-12-06T13:56:36.157Z,100681.48
2022-12-06T13:57:39.207Z,100686.48
2022-12-06T13:58:45.985Z,100684.76
2022-12-06T13:59:49.448Z,100679.95
2022-12-06T14:00:53.918Z,100674.80
2022-12-06T14:01:56.991Z,100681.16
2022-12-06T14:03:02.613Z,100680.09
2022-12-06T14:07:00.326Z,100683.80
2022-12-06T14:08:02.316Z,100681.12
2022-12-06T14:09:08.206Z,100685.20
2022-12-06T14:10:13.305Z,100686.80
2022-12-06T14:11:22.366Z,100689.19
2022-12-06T14:12:27.796Z,100689.11
2022-12-06T14:13:29.724Z,100689.84
2022-12-06T14:14:31.903Z,100688.70
2022-12-06T14:15:33.806Z,100692.98
2022-12-06T14:16:55.394Z,100694.63
2022-12-06T14:18:05.569Z,100693.70
2022-12-06T14:19:23.832Z,100691.67
2022-12-06T14:20:28.912Z,100684.13
2022-12-06T14:21:35.737Z,100683.55
2022-12-06T14:22:37.999Z,100677.59
2022-12-06T14:23:46.141Z,100683.63
2022-12-06T14:25:00.652Z,100686.46
2022-12-06T14:26:21.572Z,100684.11
2022-12-06T14:27:25.037Z,100689.30
2022-12-06T14:28:30.838Z,100682.12
2022-12-06T14:29:33.210Z,100689.92
2022-12-06T14:30:35.559Z,100685.55
2022-12-06T14:31:38.819Z,100683.44
2022-12-06T14:32:44.987Z,100687.56
2022-12-06T14:33:47.468Z,100678.75
2022-12-06T14:34:49.229Z,100680.94
2022-12-06T14:35:54.672Z,100681.66
2022-12-06T14:36:59.253Z,100683.89
2022-12-06T14:38:23.300Z,100680.34
2022-12-06T14:39:31.625Z,100681.23
2022-12-06T18:18:36.884Z,100512.13
2022-12-06T18:19:38.853Z,100512.67
2022-12-06T18:20:42.064Z,100520.36
2022-12-06T18:21:45.136Z,100516.20
2022-12-06T18:22:47.138Z,100515.61
2022-12-06T18:24:19.917Z,100509.94
2022-12-06T18:24:53.524Z,100512.87
2022-12-06T18:25:55.159Z,100509.73
2022-12-06T18:26:58.331Z,100514.09
2022-12-06T18:28:01.183Z,100508.52
2022-12-06T18:29:05.030Z,100512.30
2022-12-06T18:30:09.351Z,100514.19
2022-12-06T18:31:13.308Z,100510.25
2022-12-06T18:32:16.696Z,100510.16
2022-12-06T18:33:23.358Z,100514.58
2022-12-06T18:34:25.079Z,100503.73
2022-12-06T18:35:29.457Z,100500.52
2022-12-06T18:36:32.574Z,100504.13
2022-12-06T18:37:35.986Z,100502.50
2022-12-06T18:38:41.645Z,100506.61
2022-12-06T18:39:45.262Z,100497.56
2022-12-06T18:40:47.483Z,100505.95
2022-12-06T18:41:51.064Z,100504.22
2022-12-06T18:42:54.526Z,100487.09
2022-12-06T18:44:03.249Z,100499.59
2022-12-06T18:45:06.840Z,100493.02
2022-12-06T18:46:14.582Z,100504.67
2022-12-06T18:47:17.361Z,100490.30
2022-12-06T18:48:19.162Z,100492.46
2022-12-06T18:49:21.472Z,100487.47
2022-12-06T18:50:23.273Z,100490.20
2022-12-06T18:51:29.406Z,100483.39
2022-12-06T18:52:31.465Z,100481.25
2022-12-06T18:53:35.494Z,100471.87
2022-12-06T18:54:38.356Z,100476.71
2022-12-06T18:55:41.831Z,100471.90
2022-12-06T18:56:47.348Z,100467.05
2022-12-06T18:57:50.951Z,100473.63
2022-12-06T18:58:53.592Z,100470.41
2022-12-06T18:59:58.688Z,100475.35
2022-12-06T19:01:09.630Z,100460.22
2022-12-06T19:02:12.820Z,100470.50
2022-12-06T19:03:14.933Z,100466.91
2022-12-06T19:04:16.877Z,100466.30
2022-12-06T19:05:27.796Z,100455.77
2022-12-06T19:06:25.675Z,100455.77
2022-12-06T19:07:28.500Z,100457.41
2022-12-06T19:08:31.069Z,100468.42
2022-12-06T19:09:33.100Z,100463.45
2022-12-06T19:10:35.396Z,100452.14
2022-12-06T19:11:40.776Z,100460.85
2022-12-06T19:12:42.832Z,100468.69
2022-12-06T19:13:53.600Z,100459.60
2022-12-06T19:14:55.582Z,100452.09
2022-12-06T19:16:03.575Z,100457.64
2022-12-06T19:17:08.988Z,100451.71
2022-12-06T19:18:11.474Z,100451.80
2022-12-06T19:19:17.254Z,100450.36
2022-12-06T19:20:19.703Z,100445.25
2022-12-06T19:21:22.902Z,100449.41
2022-12-06T19:22:26.810Z,100444.17
2022-12-06T19:23:29.941Z,100447.63
2022-12-06T19:24:32.494Z,100433.33
2022-12-06T19:25:34.862Z,100436.24
2022-12-06T19:26:36.863Z,100437.20
2022-12-06T19:27:39.486Z,100433.89
2022-12-06T19:28:41.845Z,100427.16
2022-12-06T19:29:43.660Z,100432.27
2022-12-06T19:30:49.741Z,100430.52
2022-12-06T19:31:52.205Z,100434.95
2022-12-06T19:32:54.001Z,100428.61
2022-12-06T19:33:56.315Z,100427.48
2022-12-06T19:34:59.754Z,100425.99
2022-12-06T19:36:06.343Z,100434.13
2022-12-06T19:37:08.701Z,100428.41
2022-12-06T19:38:11.603Z,100420.30
2022-12-06T19:39:13.527Z,100420.30
2022-12-06T19:40:16.566Z,100429.14
2022-12-06T19:41:19.105Z,100424.88
2022-12-06T19:42:22.390Z,100421.55
2022-12-06T19:43:27.577Z,100428.11
2022-12-06T19:44:30.151Z,100422.72
2022-12-06T19:45:32.946Z,100426.61
2022-12-06T19:46:36.680Z,100424.73
2022-12-06T19:47:39.778Z,100420.33
2022-12-06T19:48:43.101Z,100414.34
2022-12-06T19:49:46.001Z,100416.23
2022-12-06T19:50:48.570Z,100423.69
2022-12-06T19:51:50.900Z,100424.34
2022-12-06T19:52:54.904Z,100422.16
2022-12-06T19:53:58.292Z,100420.53
2022-12-06T19:55:01.806Z,100417.23
2022-12-06T19:56:07.403Z,100419.84
2022-12-06T19:57:09.353Z,100415.70
2022-12-06T19:58:11.186Z,100414.13
2022-12-06T19:59:14.792Z,100414.50
2022-12-06T20:00:22.475Z,100409.73
2022-12-06T20:01:24.334Z,100407.70
2022-12-06T20:02:26.550Z,100413.27
2022-12-06T20:03:28.944Z,100408.38
2022-12-06T20:04:34.621Z,100404.53
2022-12-06T20:05:36.983Z,100397.70
2022-12-06T20:06:38.806Z,100392.74
2022-12-06T20:07:41.113Z,100394.50
2022-12-06T20:08:44.019Z,100392.27
2022-12-06T20:09:45.902Z,100388.48
2022-12-06T20:10:56.360Z,100380.98
2022-12-06T20:11:59.970Z,100383.48
2022-12-06T20:13:02.387Z,100385.81
2022-12-06T20:14:07.846Z,100397.95
2022-12-06T20:15:10.743Z,100388.63
2022-12-06T20:16:13.086Z,100377.47
2022-12-06T20:17:22.860Z,100380.83
2022-12-06T20:18:25.140Z,100393.66
2022-12-06T20:19:27.026Z,100386.97
2022-12-06T20:20:29.459Z,100383.52
2022-12-06T20:21:31.174Z,100384.58
2022-12-06T20:22:34.124Z,100380.47
2022-12-06T20:23:36.769Z,100374.74
2022-12-06T20:24:39.368Z,100375.47
2022-12-06T20:25:41.069Z,100375.47
2022-12-06T20:26:45.097Z,100386.75
2022-12-06T20:27:48.056Z,100382.30
2022-12-06T20:28:49.777Z,100387.69
2022-12-06T20:29:52.616Z,100386.09
2022-12-06T20:30:56.800Z,100392.20
2022-12-06T20:31:59.823Z,100387.18
2022-12-06T20:33:01.709Z,100383.64
2022-12-06T20:34:10.147Z,100386.88
2022-12-06T20:35:09.782Z,100380.26
2022-12-06T20:36:14.217Z,100389.92
2022-12-06T20:37:17.128Z,100386.80
2022-12-06T20:38:18.829Z,100385.17
2022-12-06T20:39:26.115Z,100384.55
2022-12-06T20:40:31.601Z,100384.36
2022-12-06T20:41:33.171Z,100392.59
2022-12-06T20:42:36.089Z,100389.31
2022-12-06T20:43:41.902Z,100388.20
2022-12-06T20:44:44.422Z,100384.25
2022-12-06T20:45:46.984Z,100386.86
2022-12-06T20:46:49.819Z,100378.22
2022-12-06T20:47:52.897Z,100382.69
2022-12-06T20:48:56.698Z,100380.32
2022-12-06T20:49:59.080Z,100387.91
2022-12-06T20:51:05.378Z,100379.03
2022-12-06T20:52:07.404Z,100382.63
2022-12-06T20:53:09.549Z,100381.23
2022-12-06T20:54:18.863Z,100381.23
2022-12-06T20:55:21.001Z,100383.73
2022-12-06T21:01:40.920Z,100372.49
2022-12-06T21:02:44.095Z,100383.77
2022-12-06T21:03:52.651Z,100383.16
2022-12-06T21:04:54.955Z,100376.94
2022-12-06T21:06:03.709Z,100385.35
2022-12-06T21:07:05.961Z,100380.91
2022-12-06T21:08:08.043Z,100379.57
2022-12-06T21:09:10.731Z,100385.63
2022-12-06T21:10:13.811Z,100373.02
2022-12-06T21:11:24.962Z,100373.02
2022-12-06T21:12:21.385Z,100368.77
2022-12-06T21:13:24.224Z,100372.84
2022-12-06T21:14:26.584Z,100368.09
2022-12-06T21:15:28.909Z,100362.03
2022-12-06T21:16:33.282Z,100371.41
2022-12-06T21:17:35.395Z,100366.05
2022-12-06T21:18:38.257Z,100369.50
2022-12-06T21:19:41.464Z,100362.80
2022-12-06T21:20:43.353Z,100359.46
2022-12-06T21:21:50.739Z,100362.11
2022-12-06T21:22:52.527Z,100357.91
2022-12-06T21:23:54.564Z,100356.39
2022-12-06T21:24:57.392Z,100356.67
2022-12-06T21:26:04.091Z,100351.63
2022-12-06T21:27:06.038Z,100354.98
2022-12-06T21:28:08.742Z,100351.73
2022-12-06T21:29:18.570Z,100341.48
2022-12-06T21:30:20.610Z,100347.51
2022-12-06T21:31:34.288Z,100344.26
2022-12-06T21:32:36.454Z,100346.66
2022-12-06T21:33:38.876Z,100340.50
2022-12-06T21:34:46.262Z,100343.20
2022-12-06T21:35:45.772Z,100333.73
2022-12-06T21:36:49.062Z,100342.23
2022-12-06T21:37:51.045Z,100343.31
2022-12-06T21:38:53.496Z,100338.57
2022-12-06T21:39:56.240Z,100341.30
2022-12-06T21:42:17.646Z,100331.94
2022-12-06T21:43:21.733Z,100336.34
2022-12-06T21:44:23.818Z,100327.78
2022-12-06T21:45:25.633Z,100325.42
2022-12-06T21:46:27.712Z,100329.61
2022-12-06T21:47:30.699Z,100320.68
2022-12-06T21:48:33.131Z,100329.09
2022-12-06T21:49:35.961Z,100321.53
2022-12-06T21:50:38.292Z,100316.55
2022-12-06T21:51:39.934Z,100323.95
2022-12-06T21:52:41.581Z,100319.45
2022-12-06T21:53:43.608Z,100312.69
2022-12-06T21:54:45.536Z,100317.84
2022-12-06T21:55:48.378Z,100305.75
2022-12-06T21:56:51.548Z,100306.46
2022-12-06T21:57:54.670Z,100306.28
2022-12-06T21:58:56.783Z,100311.74
2022-12-06T21:59:59.228Z,100302.63
2022-12-06T22:01:10.965Z,100305.66
2022-12-06T22:02:13.093Z,100303.26
2022-12-06T22:03:20.929Z,100305.92
2022-12-06T22:04:18.878Z,100302.47
2022-12-06T22:05:22.114Z,100301.63
2022-12-06T22:06:26.015Z,100300.34
2022-12-06T22:07:29.202Z,100297.00
2022-12-06T22:08:31.569Z,100287.97
2022-12-06T22:09:34.704Z,100287.48
2022-12-06T22:10:39.402Z,100290.05
2022-12-06T22:11:41.561Z,100290.20
2022-12-06T22:12:46.602Z,100285.69
2022-12-06T22:13:48.512Z,100282.41
2022-12-06T22:14:51.265Z,100279.03
2022-12-06T22:15:53.120Z,100282.59
2022-12-06T22:16:55.277Z,100273.33
2022-12-06T22:17:57.096Z,100280.77
2022-12-06T22:18:58.876Z,100287.27
